Time;durP1;ratioP1;P1;durP2;ratioP2;P2;SDS_P1;SDS_P2;PMS_P1;PMS_P2;Temp;Humidity;BMP_temperature;BMP_pressure;BME280_temperature;BME280_humidity;BME280_pressure;Samples;Min_cycle;Max_cycle;Signal;HPM_P1;HPM_P2
2021/09/23 00:01:04;;;;;;;2.53;1.45;;;27.90;99.90;;;;;;4144740;28;20558;-66
2021/09/23 00:05:19;;;;;;;3.97;1.40;;;27.90;99.90;;;;;;4144902;28;20119;-65
2021/09/23 00:07:24;;;;;;;3.22;1.50;;;27.90;99.90;;;;;;4137186;28;20076;-65
2021/09/23 00:09:28;;;;;;;3.88;1.30;;;27.90;99.90;;;;;;4149477;28;20041;-65
2021/09/23 00:11:33;;;;;;;3.60;1.30;;;27.70;99.90;;;;;;4171492;28;20048;-65
2021/09/23 00:13:38;;;;;;;2.97;1.35;;;27.70;99.90;;;;;;4141018;28;20060;-65
2021/09/23 00:15:43;;;;;;;3.50;1.65;;;27.80;99.90;;;;;;4140655;28;20050;-65
2021/09/23 00:17:49;;;;;;;1.95;1.50;;;27.80;99.90;;;;;;4137767;28;20068;-66
2021/09/23 00:19:53;;;;;;;2.92;1.40;;;27.90;99.90;;;;;;4158643;28;20529;-66
2021/09/23 00:21:58;;;;;;;2.00;1.45;;;27.90;99.90;;;;;;4192183;28;20094;-66
2021/09/23 00:24:03;;;;;;;2.53;1.20;;;27.90;99.90;;;;;;4192039;28;20121;-66
2021/09/23 00:26:08;;;;;;;3.78;1.73;;;27.80;99.90;;;;;;4186535;28;20049;-66
2021/09/23 00:28:12;;;;;;;3.25;1.67;;;27.90;99.90;;;;;;4180063;28;20114;-66
2021/09/23 00:30:17;;;;;;;3.92;1.40;;;27.90;99.90;;;;;;4191085;28;20048;-65
2021/09/23 00:32:22;;;;;;;1.80;1.10;;;28.00;99.90;;;;;;4191741;28;20500;-65
2021/09/23 00:34:27;;;;;;;2.58;1.23;;;27.90;99.90;;;;;;4191808;28;20052;-65
2021/09/23 00:36:31;;;;;;;2.58;1.27;;;28.00;99.90;;;;;;4190309;28;20367;-66
2021/09/23 00:38:36;;;;;;;3.25;1.20;;;28.00;99.90;;;;;;4178306;28;20048;-66
2021/09/23 00:40:41;;;;;;;1.65;0.85;;;28.00;99.90;;;;;;4189965;28;20055;-66
2021/09/23 00:42:48;;;;;;;1.95;1.20;;;28.10;99.90;;;;;;4190660;28;20104;-66
2021/09/23 00:44:58;;;;;;;3.00;1.20;;;28.10;99.90;;;;;;4191602;28;20083;-66
2021/09/23 00:47:03;;;;;;;2.40;1.08;;;28.10;99.90;;;;;;4152633;28;20462;-66
2021/09/23 00:49:07;;;;;;;3.53;1.30;;;28.20;99.90;;;;;;4182033;28;20055;-66
2021/09/23 00:51:12;;;;;;;2.88;1.50;;;28.20;99.90;;;;;;4191355;28;20053;-66
2021/09/23 00:53:21;;;;;;;4.30;1.30;;;28.30;99.90;;;;;;4192133;28;20051;-66
2021/09/23 00:55:25;;;;;;;4.65;1.20;;;28.30;99.90;;;;;;4191914;28;20058;-65
2021/09/23 00:57:30;;;;;;;4.13;1.17;;;28.40;99.90;;;;;;4165798;28;20526;-66
2021/09/23 00:59:35;;;;;;;1.75;1.10;;;28.30;99.90;;;;;;4185503;28;20048;-66
2021/09/23 01:01:45;;;;;;;4.53;1.13;;;28.40;99.90;;;;;;4188312;28;20048;-66
2021/09/23 01:03:56;;;;;;;2.45;1.45;;;28.50;99.90;;;;;;4190780;28;20087;-66
2021/09/23 01:06:02;;;;;;;1.67;1.30;;;28.60;99.90;;;;;;4190722;28;20048;-66
2021/09/23 01:08:09;;;;;;;1.75;1.10;;;28.60;99.90;;;;;;4178979;28;20080;-65
2021/09/23 01:10:16;;;;;;;4.43;1.35;;;28.70;99.90;;;;;;4189082;28;20223;-66
2021/09/23 01:12:23;;;;;;;2.28;1.08;;;28.70;99.90;;;;;;4170322;28;20123;-66
2021/09/23 01:14:29;;;;;;;4.00;1.08;;;28.80;99.90;;;;;;4191058;28;20048;-66
2021/09/23 01:16:34;;;;;;;2.10;1.10;;;28.80;99.90;;;;;;4186710;28;20050;-66
2021/09/23 01:18:45;;;;;;;3.45;1.40;;;28.90;99.90;;;;;;4198339;28;20071;-66
2021/09/23 01:20:51;;;;;;;3.25;1.20;;;29.00;99.90;;;;;;4188580;28;20052;-66
2021/09/23 01:22:57;;;;;;;1.92;1.40;;;29.10;99.90;;;;;;4190694;28;21477;-65
2021/09/23 01:25:25;;;;;;;1.92;1.30;;;29.20;99.90;;;;;;4191911;28;20502;-66
2021/09/23 01:27:32;;;;;;;1.88;1.25;;;29.20;99.90;;;;;;4165899;28;20509;-66
2021/09/23 01:29:38;;;;;;;3.80;1.20;;;29.20;99.90;;;;;;4186431;28;20040;-66
2021/09/23 01:31:47;;;;;;;2.22;1.10;;;29.30;99.90;;;;;;4183013;28;20048;-66
2021/09/23 01:33:52;;;;;;;2.00;1.10;;;29.40;99.90;;;;;;4175676;28;20075;-65
2021/09/23 01:35:59;;;;;;;6.22;1.50;;;29.40;99.90;;;;;;4193500;28;20060;-67
2021/09/23 01:38:03;;;;;;;2.97;1.35;;;29.50;99.90;;;;;;4176683;28;20061;-67
2021/09/23 01:40:10;;;;;;;2.58;1.20;;;29.50;99.90;;;;;;4193519;28;20113;-67
2021/09/23 01:42:15;;;;;;;1.60;1.20;;;29.60;99.90;;;;;;4192063;28;20048;-66
2021/09/23 01:44:20;;;;;;;2.42;1.30;;;29.60;99.90;;;;;;4194625;28;20048;-66
2021/09/23 01:46:25;;;;;;;2.28;1.20;;;29.70;99.90;;;;;;4192579;28;20117;-66
2021/09/23 01:48:50;;;;;;;2.22;1.20;;;29.70;99.90;;;;;;4185767;28;20078;-65
2021/09/23 01:50:54;;;;;;;4.25;1.27;;;29.60;99.90;;;;;;4192068;28;20490;-66
2021/09/23 01:53:00;;;;;;;2.33;0.98;;;29.60;99.90;;;;;;4193412;28;20090;-66
2021/09/23 01:55:06;;;;;;;2.15;1.27;;;29.60;99.90;;;;;;4192933;28;20145;-66
2021/09/23 01:57:12;;;;;;;3.47;1.25;;;29.50;99.90;;;;;;4180636;28;20048;-67
2021/09/23 01:59:17;;;;;;;3.20;1.15;;;29.60;99.90;;;;;;4190295;28;20049;-66
2021/09/23 02:01:22;;;;;;;3.47;1.27;;;29.60;99.90;;;;;;4193078;28;20057;-66
2021/09/23 02:03:26;;;;;;;1.95;1.15;;;29.60;99.90;;;;;;4177165;28;20480;-65
2021/09/23 02:05:42;;;;;;;1.95;1.20;;;29.60;99.90;;;;;;4192465;28;20396;-66
2021/09/23 02:07:47;;;;;;;1.63;1.00;;;29.60;99.90;;;;;;4176607;28;20065;-66
2021/09/23 02:09:52;;;;;;;3.08;1.20;;;29.50;99.90;;;;;;4192953;28;20139;-66
2021/09/23 02:11:57;;;;;;;3.72;1.20;;;29.50;99.90;;;;;;4194004;28;20044;-67
2021/09/23 02:14:03;;;;;;;1.45;1.17;;;29.50;99.90;;;;;;4194368;28;20050;-67
2021/09/23 02:16:09;;;;;;;2.80;1.30;;;29.50;99.90;;;;;;4184443;28;20799;-66
2021/09/23 02:18:17;;;;;;;2.55;1.20;;;29.50;99.90;;;;;;4151580;28;20439;-64
2021/09/23 02:20:23;;;;;;;2.40;1.20;;;29.50;99.90;;;;;;4161201;28;20077;-65
2021/09/23 02:22:29;;;;;;;1.60;1.15;;;29.50;99.90;;;;;;4185300;28;20049;-66
2021/09/23 02:24:33;;;;;;;2.60;1.40;;;29.60;99.90;;;;;;4193523;28;20071;-65
2021/09/23 02:26:41;;;;;;;2.55;1.17;;;29.50;99.90;;;;;;4154436;28;20057;-65
2021/09/23 02:28:46;;;;;;;3.25;1.23;;;29.50;99.90;;;;;;4188725;28;20037;-66
2021/09/23 02:30:51;;;;;;;1.77;1.30;;;29.50;99.90;;;;;;4192956;28;20053;-66
2021/09/23 02:32:56;;;;;;;2.22;1.30;;;29.60;99.90;;;;;;4193901;28;20048;-67
2021/09/23 02:35:02;;;;;;;2.40;1.40;;;29.60;99.90;;;;;;4193353;28;20057;-66
2021/09/23 02:37:07;;;;;;;1.73;1.00;;;29.60;99.90;;;;;;4189023;28;20091;-66
2021/09/23 02:39:13;;;;;;;2.05;1.05;;;29.60;99.90;;;;;;4171875;28;20052;-66
2021/09/23 02:41:18;;;;;;;3.50;1.30;;;29.60;99.90;;;;;;4191683;28;20048;-66
2021/09/23 02:43:23;;;;;;;1.80;1.25;;;29.60;99.90;;;;;;4193168;28;20056;-66
2021/09/23 02:45:28;;;;;;;1.83;1.25;;;29.70;99.90;;;;;;4176308;28;20135;-66
2021/09/23 02:47:32;;;;;;;2.92;1.40;;;29.70;99.90;;;;;;4184770;28;20141;-66
2021/09/23 02:49:37;;;;;;;3.50;1.40;;;29.80;99.90;;;;;;4172082;28;20044;-66
2021/09/23 02:51:41;;;;;;;2.03;1.50;;;29.80;99.90;;;;;;4190719;28;20049;-66
2021/09/23 02:53:46;;;;;;;1.80;1.38;;;29.70;99.90;;;;;;4192511;28;20138;-66
2021/09/23 02:55:51;;;;;;;2.53;1.48;;;29.80;99.90;;;;;;4193119;28;20626;-65
2021/09/23 02:57:55;;;;;;;2.45;1.20;;;29.90;99.90;;;;;;4179859;28;20131;-65
2021/09/23 03:00:00;;;;;;;1.42;1.30;;;30.00;99.90;;;;;;4188435;28;20146;-66
2021/09/23 03:02:04;;;;;;;3.80;1.88;;;30.10;99.90;;;;;;4188204;28;20052;-66
2021/09/23 03:04:09;;;;;;;6.38;1.58;;;30.10;99.90;;;;;;4192695;28;20050;-64
2021/09/23 03:06:14;;;;;;;3.78;1.52;;;30.30;99.90;;;;;;4175819;28;20324;-65
2021/09/23 03:08:20;;;;;;;2.95;1.50;;;30.30;99.90;;;;;;4164172;28;20068;-65
2021/09/23 03:10:24;;;;;;;3.53;1.50;;;30.40;99.90;;;;;;4189624;28;20049;-65
2021/09/23 03:12:29;;;;;;;3.10;1.42;;;30.40;99.90;;;;;;4190006;28;20044;-66
2021/09/23 03:14:34;;;;;;;2.97;1.30;;;30.40;99.90;;;;;;4191951;28;20057;-66
2021/09/23 03:16:38;;;;;;;2.95;1.42;;;30.40;99.90;;;;;;4171820;28;20048;-67
2021/09/23 03:18:45;;;;;;;3.85;1.50;;;30.40;99.90;;;;;;4179267;28;20056;-67
2021/09/23 03:20:49;;;;;;;1.85;1.10;;;30.50;99.90;;;;;;4188840;28;20123;-66
2021/09/23 03:22:55;;;;;;;3.15;1.55;;;30.60;99.90;;;;;;4184478;28;20094;-64
2021/09/23 03:24:59;;;;;;;1.80;1.60;;;30.60;99.90;;;;;;4190462;28;20045;-64
2021/09/23 03:27:04;;;;;;;2.83;1.50;;;30.60;99.90;;;;;;4182410;28;20053;-65
2021/09/23 03:29:09;;;;;;;3.08;1.48;;;30.60;99.90;;;;;;4187156;28;20044;-64
2021/09/23 03:31:13;;;;;;;2.30;1.38;;;30.60;99.90;;;;;;4186283;28;20064;-63
2021/09/23 03:33:18;;;;;;;3.25;1.60;;;30.70;99.90;;;;;;4188988;28;20127;-64
2021/09/23 03:35:23;;;;;;;2.25;1.35;;;30.80;99.90;;;;;;4190689;28;20434;-65
2021/09/23 03:37:27;;;;;;;1.85;1.30;;;30.90;99.90;;;;;;4166754;28;20049;-66
2021/09/23 03:39:32;;;;;;;3.45;1.58;;;30.90;99.90;;;;;;4187928;28;20058;-65
2021/09/23 03:41:36;;;;;;;2.17;1.50;;;31.00;99.90;;;;;;4189516;28;20041;-65
2021/09/23 03:43:41;;;;;;;1.98;1.38;;;31.10;99.90;;;;;;4191125;28;20052;-64
2021/09/23 03:45:47;;;;;;;2.47;1.33;;;31.10;99.90;;;;;;4189531;28;20127;-65
2021/09/23 03:47:52;;;;;;;2.33;1.50;;;31.10;99.90;;;;;;4164396;28;20049;-66
2021/09/23 03:49:56;;;;;;;3.45;1.35;;;31.10;99.90;;;;;;4196096;28;20481;-65
2021/09/23 03:52:01;;;;;;;1.48;1.23;;;31.20;99.90;;;;;;4185354;28;20096;-64
2021/09/23 03:54:06;;;;;;;3.55;1.40;;;31.10;99.90;;;;;;4188697;28;20045;-65
2021/09/23 03:56:14;;;;;;;3.08;1.42;;;31.20;99.90;;;;;;4171521;28;20048;-65
2021/09/23 03:58:21;;;;;;;2.75;1.25;;;31.30;99.90;;;;;;4181431;28;20052;-65
2021/09/23 04:00:27;;;;;;;1.90;1.20;;;31.30;99.90;;;;;;4189206;28;20048;-64
2021/09/23 04:02:32;;;;;;;2.38;1.30;;;31.30;99.90;;;;;;4188434;28;20049;-66
2021/09/23 04:04:37;;;;;;;2.72;1.42;;;31.20;99.90;;;;;;4188391;28;20060;-65
2021/09/23 04:06:43;;;;;;;1.83;1.30;;;31.30;99.90;;;;;;4166073;28;20037;-64
2021/09/23 04:08:51;;;;;;;3.15;1.40;;;31.30;99.90;;;;;;4163750;28;20041;-65
2021/09/23 04:10:57;;;;;;;2.53;1.48;;;31.30;99.90;;;;;;4183011;28;20447;-65
2021/09/23 04:13:04;;;;;;;6.97;1.83;;;31.30;99.90;;;;;;4171167;28;20444;-65
2021/09/23 04:15:09;;;;;;;2.67;1.65;;;31.20;99.90;;;;;;4188410;28;20075;-65
2021/09/23 04:17:18;;;;;;;2.45;1.63;;;31.00;99.90;;;;;;4165786;28;20463;-66
2021/09/23 04:19:24;;;;;;;3.00;1.88;;;30.70;99.90;;;;;;4162054;28;20084;-66
2021/09/23 04:21:28;;;;;;;4.75;1.40;;;30.80;99.90;;;;;;4188274;28;20562;-66
2021/09/23 04:23:33;;;;;;;3.78;1.63;;;30.60;99.90;;;;;;4221605;28;20062;-66
2021/09/23 04:25:39;;;;;;;3.60;1.55;;;30.50;99.90;;;;;;4172672;28;20041;-66
2021/09/23 04:27:46;;;;;;;5.10;1.63;;;30.50;99.90;;;;;;4178465;28;20045;-66
2021/09/23 04:29:51;;;;;;;2.47;1.80;;;30.50;99.90;;;;;;4187934;28;20074;-66
2021/09/23 04:31:56;;;;;;;3.40;1.42;;;30.50;99.90;;;;;;4187171;28;20635;-66
2021/09/23 04:34:03;;;;;;;2.40;1.30;;;30.50;99.90;;;;;;4188319;28;20048;-66
2021/09/23 04:36:08;;;;;;;3.30;1.40;;;30.50;99.90;;;;;;4188406;28;20052;-65
2021/09/23 04:38:17;;;;;;;2.38;1.00;;;30.50;99.90;;;;;;4195828;28;20093;-66
2021/09/23 04:40:22;;;;;;;2.00;1.20;;;30.80;99.90;;;;;;4188846;28;20071;-65
2021/09/23 04:42:27;;;;;;;2.40;1.48;;;31.10;99.90;;;;;;4184690;28;20377;-67
2021/09/23 04:44:35;;;;;;;2.58;1.33;;;31.10;99.90;;;;;;4205091;28;20130;-65
2021/09/23 04:46:40;;;;;;;2.28;1.23;;;31.10;99.90;;;;;;4168541;28;20091;-66
2021/09/23 04:48:45;;;;;;;3.45;1.40;;;30.90;99.90;;;;;;4183246;28;20055;-65
2021/09/23 04:50:49;;;;;;;3.15;1.70;;;30.80;99.90;;;;;;4188083;28;20051;-65
2021/09/23 04:52:54;;;;;;;4.35;1.70;;;30.80;99.90;;;;;;4154090;28;20435;-65
2021/09/23 04:54:58;;;;;;;2.40;1.40;;;30.80;99.90;;;;;;4183500;28;20051;-64
2021/09/23 04:57:04;;;;;;;3.22;1.70;;;30.80;99.90;;;;;;4182268;28;20048;-64
2021/09/23 04:59:13;;;;;;;2.42;1.55;;;30.90;99.90;;;;;;4199704;28;20040;-64
2021/09/23 05:01:20;;;;;;;2.20;1.70;;;30.90;99.90;;;;;;4187323;28;20053;-64
2021/09/23 05:03:25;;;;;;;2.55;1.52;;;30.80;99.90;;;;;;4187748;28;20108;-65
2021/09/23 05:05:30;;;;;;;1.80;1.27;;;30.80;99.90;;;;;;4186182;28;20398;-64
2021/09/23 05:07:38;;;;;;;2.08;1.52;;;30.80;99.90;;;;;;4181824;28;20044;-65
2021/09/23 05:09:43;;;;;;;4.10;1.40;;;30.80;99.90;;;;;;4189344;28;20699;-65
2021/09/23 05:11:48;;;;;;;2.17;1.50;;;30.70;99.90;;;;;;4189752;28;20036;-64
2021/09/23 05:13:53;;;;;;;2.08;1.45;;;30.70;99.90;;;;;;4193023;28;20040;-67
2021/09/23 05:15:57;;;;;;;4.80;1.38;;;30.70;99.90;;;;;;4172185;28;20535;-67
2021/09/23 05:18:02;;;;;;;3.70;1.88;;;30.40;99.90;;;;;;4182059;28;20044;-66
2021/09/23 05:20:08;;;;;;;2.38;1.73;;;30.40;99.90;;;;;;4192398;28;20048;-66
2021/09/23 05:22:13;;;;;;;5.00;2.28;;;30.20;99.90;;;;;;4173373;28;20604;-66
2021/09/23 05:24:18;;;;;;;8.60;2.03;;;29.90;99.90;;;;;;4192834;28;20453;-66
2021/09/23 05:26:23;;;;;;;2.55;2.25;;;29.80;99.90;;;;;;4189367;28;20532;-66
2021/09/23 05:28:28;;;;;;;6.47;1.77;;;29.60;99.90;;;;;;4180819;28;20032;-66
2021/09/23 05:30:32;;;;;;;3.67;1.70;;;29.60;99.90;;;;;;4188557;28;20053;-66
2021/09/23 05:32:37;;;;;;;5.10;1.98;;;29.60;99.90;;;;;;4184832;28;20091;-66
2021/09/23 05:34:41;;;;;;;4.43;1.73;;;29.40;99.90;;;;;;4190972;28;20049;-67
2021/09/23 05:36:45;;;;;;;3.38;1.60;;;29.20;99.90;;;;;;4170489;28;20057;-67
2021/09/23 05:38:50;;;;;;;2.95;1.48;;;29.30;99.90;;;;;;4185288;28;20176;-67
2021/09/23 05:40:59;;;;;;;3.80;1.27;;;29.30;99.90;;;;;;4192313;28;20047;-67
2021/09/23 05:43:04;;;;;;;5.63;2.03;;;29.40;99.90;;;;;;4190892;28;20163;-67
2021/09/23 05:45:11;;;;;;;5.20;2.10;;;29.50;99.90;;;;;;4190467;28;20045;-67
2021/09/23 05:47:17;;;;;;;3.80;2.00;;;29.30;99.90;;;;;;4166949;28;20442;-66
2021/09/23 05:49:22;;;;;;;6.75;2.17;;;29.10;99.90;;;;;;4186635;28;20090;-65
2021/09/23 05:51:26;;;;;;;4.30;1.90;;;28.90;99.90;;;;;;4174308;28;20567;-67
2021/09/23 05:53:31;;;;;;;8.45;2.10;;;28.70;99.90;;;;;;4189052;28;20045;-68
2021/09/23 05:55:35;;;;;;;7.22;2.10;;;28.70;99.90;;;;;;4191248;28;20105;-68
2021/09/23 05:57:42;;;;;;;6.68;2.13;;;28.60;99.90;;;;;;4182734;28;20041;-67
2021/09/23 05:59:47;;;;;;;4.38;2.05;;;28.60;99.90;;;;;;4190105;28;20044;-67
2021/09/23 06:01:54;;;;;;;6.57;2.30;;;28.70;99.90;;;;;;4190927;28;20045;-68
2021/09/23 06:03:59;;;;;;;2.65;1.65;;;28.50;99.90;;;;;;4188577;28;20652;-66
2021/09/23 06:06:04;;;;;;;4.60;1.90;;;28.40;99.90;;;;;;4191373;28;20103;-67
2021/09/23 06:08:09;;;;;;;3.55;2.00;;;28.40;99.90;;;;;;4181766;28;20097;-68
2021/09/23 06:10:15;;;;;;;6.35;2.05;;;28.40;99.90;;;;;;4191068;28;20045;-67
2021/09/23 06:12:19;;;;;;;4.07;1.92;;;28.40;99.90;;;;;;4188599;28;20114;-67
2021/09/23 06:14:27;;;;;;;4.45;2.30;;;28.20;99.90;;;;;;4190007;28;20125;-67
2021/09/23 06:16:32;;;;;;;7.35;1.98;;;28.30;99.90;;;;;;4188066;28;20481;-67
2021/09/23 06:18:37;;;;;;;3.35;1.85;;;28.40;99.90;;;;;;4184091;28;20083;-68
2021/09/23 06:20:44;;;;;;;3.38;1.42;;;28.50;99.90;;;;;;4188570;28;20049;-68
2021/09/23 06:22:50;;;;;;;4.18;1.77;;;28.70;99.90;;;;;;4188948;28;20052;-68
2021/09/23 06:24:55;;;;;;;3.05;1.60;;;28.70;99.90;;;;;;4188055;28;20048;-68
2021/09/23 06:27:00;;;;;;;3.35;1.60;;;28.80;99.90;;;;;;4182066;28;20071;-66
2021/09/23 06:29:05;;;;;;;6.82;2.08;;;29.00;99.90;;;;;;4190033;28;20044;-68
2021/09/23 06:31:09;;;;;;;4.03;1.75;;;29.10;99.90;;;;;;4193254;28;20509;-67
2021/09/23 06:33:14;;;;;;;5.00;1.98;;;29.00;99.90;;;;;;4186715;28;20129;-67
2021/09/23 06:35:19;;;;;;;3.95;1.88;;;29.20;99.90;;;;;;4191857;28;20045;-64
2021/09/23 06:37:23;;;;;;;3.63;1.73;;;29.30;99.90;;;;;;4199923;28;20052;-66
2021/09/23 06:39:27;;;;;;;2.10;1.48;;;29.40;99.90;;;;;;4185255;28;20464;-65
2021/09/23 06:41:32;;;;;;;2.35;1.80;;;29.50;99.90;;;;;;4190542;28;20041;-65
2021/09/23 06:43:38;;;;;;;4.57;2.28;;;29.60;99.90;;;;;;4190022;28;20037;-64
2021/09/23 06:45:43;;;;;;;4.55;3.15;;;29.60;99.90;;;;;;4192442;28;20047;-65
2021/09/23 06:47:47;;;;;;;3.20;2.10;;;29.70;99.90;;;;;;4180833;28;20048;-64
2021/09/23 06:49:57;;;;;;;2.63;2.00;;;29.70;99.90;;;;;;4187789;28;20465;-66
2021/09/23 06:52:02;;;;;;;5.10;2.50;;;29.80;99.90;;;;;;4191458;28;20036;-64
2021/09/23 06:54:09;;;;;;;4.60;2.60;;;29.90;99.90;;;;;;4191169;28;20041;-64
2021/09/23 06:56:14;;;;;;;3.42;2.10;;;29.90;99.90;;;;;;4192319;28;20071;-65
2021/09/23 06:58:19;;;;;;;3.60;2.10;;;29.90;99.90;;;;;;4180790;28;20550;-63
2021/09/23 07:00:36;;;;;;;3.30;1.80;;;30.00;99.90;;;;;;4187935;28;20143;-64
2021/09/23 07:03:00;;;;;;;2.95;1.60;;;30.00;99.90;;;;;;4186876;28;20445;-63
2021/09/23 07:05:14;;;;;;;1.77;1.13;;;29.90;99.90;;;;;;4188401;28;20045;-64
2021/09/23 07:07:23;;;;;;;1.92;1.33;;;29.90;99.90;;;;;;4161206;28;20060;-63
2021/09/23 07:09:27;;;;;;;1.90;1.30;;;29.90;99.90;;;;;;4186281;28;20061;-64
2021/09/23 07:11:36;;;;;;;3.50;1.33;;;29.80;99.90;;;;;;4188938;28;20045;-64
2021/09/23 07:13:44;;;;;;;2.25;1.20;;;29.80;99.90;;;;;;4186787;28;20044;-64
2021/09/23 07:15:51;;;;;;;2.05;1.40;;;29.90;99.90;;;;;;4190109;28;20037;-65
2021/09/23 07:17:55;;;;;;;1.23;1.00;;;29.90;99.90;;;;;;4178017;28;20049;-65
2021/09/23 07:20:00;;;;;;;1.60;0.75;;;30.00;99.90;;;;;;4182242;28;20036;-65
2021/09/23 07:22:05;;;;;;;2.65;0.88;;;30.00;99.90;;;;;;4188846;28;20418;-65
2021/09/23 07:24:10;;;;;;;2.33;1.20;;;30.00;99.90;;;;;;4188902;28;20032;-63
2021/09/23 07:26:16;;;;;;;3.45;1.10;;;30.10;99.90;;;;;;4187635;28;20507;-63
2021/09/23 07:28:22;;;;;;;1.75;1.20;;;30.00;99.90;;;;;;4180683;28;20520;-64
2021/09/23 07:30:26;;;;;;;1.98;0.80;;;29.90;99.90;;;;;;4172823;28;20048;-64
2021/09/23 07:32:31;;;;;;;2.28;1.15;;;30.00;99.90;;;;;;4189610;28;20538;-64
2021/09/23 07:34:36;;;;;;;2.08;1.20;;;30.00;99.90;;;;;;4190252;28;20454;-64
2021/09/23 07:36:41;;;;;;;2.85;1.00;;;29.90;99.90;;;;;;4184232;28;20467;-64
2021/09/23 07:38:45;;;;;;;1.50;1.02;;;30.00;99.90;;;;;;4182379;28;20592;-65
2021/09/23 07:40:50;;;;;;;1.95;1.08;;;30.10;99.90;;;;;;4188751;28;20132;-65
2021/09/23 07:42:54;;;;;;;1.88;1.10;;;30.20;99.90;;;;;;4189196;28;20566;-64
2021/09/23 07:45:01;;;;;;;1.90;1.20;;;30.30;99.90;;;;;;4186869;28;20561;-64
2021/09/23 07:47:05;;;;;;;1.33;0.98;;;30.30;99.90;;;;;;4182021;28;20044;-65
2021/09/23 07:49:11;;;;;;;2.85;1.10;;;30.30;99.90;;;;;;4185227;28;20044;-64
2021/09/23 07:51:17;;;;;;;1.92;1.20;;;30.30;99.90;;;;;;4187594;28;20041;-64
2021/09/23 07:53:25;;;;;;;1.50;1.20;;;30.40;99.90;;;;;;4188513;28;20044;-65
2021/09/23 07:55:29;;;;;;;1.95;1.20;;;30.50;99.90;;;;;;4185968;28;20044;-64
2021/09/23 07:57:35;;;;;;;1.65;0.90;;;30.60;99.90;;;;;;4179300;28;20045;-65
2021/09/23 07:59:40;;;;;;;1.58;0.90;;;30.70;99.90;;;;;;4186885;28;20040;-65
2021/09/23 08:01:46;;;;;;;1.33;0.95;;;30.70;99.90;;;;;;4189120;28;20083;-65
2021/09/23 08:03:53;;;;;;;0.73;0.70;;;30.80;99.90;;;;;;4172282;28;20049;-64
2021/09/23 08:05:58;;;;;;;1.45;0.80;;;30.80;99.90;;;;;;4188338;28;20545;-64
2021/09/23 08:08:04;;;;;;;2.60;1.00;;;30.60;99.90;;;;;;4178080;28;20044;-64
2021/09/23 08:10:09;;;;;;;1.67;1.00;;;30.70;99.90;;;;;;4184158;28;20048;-64
2021/09/23 08:12:14;;;;;;;1.75;0.77;;;30.80;99.90;;;;;;4171171;28;20270;-64
2021/09/23 08:14:19;;;;;;;0.93;0.85;;;30.80;99.90;;;;;;4188534;28;20052;-66
2021/09/23 08:16:38;;;;;;;1.15;1.05;;;30.90;99.90;;;;;;4200757;28;20148;-65
2021/09/23 08:19:03;;;;;;;2.05;0.80;;;31.00;99.90;;;;;;4182462;28;20052;-65
2021/09/23 08:21:20;;;;;;;3.30;0.90;;;31.10;99.90;;;;;;4188898;28;20040;-65
2021/09/23 08:23:25;;;;;;;2.95;1.20;;;31.10;99.90;;;;;;4187104;28;20523;-65
2021/09/23 08:25:33;;;;;;;5.28;1.17;;;31.10;99.90;;;;;;4189495;28;20271;-64
2021/09/23 08:27:37;;;;;;;2.53;1.00;;;31.20;99.90;;;;;;4180423;28;20049;-64
2021/09/23 08:29:45;;;;;;;1.30;1.17;;;31.20;99.90;;;;;;4182833;28;20466;-64
2021/09/23 08:31:49;;;;;;;1.50;1.10;;;31.20;99.90;;;;;;4187481;28;20044;-64
2021/09/23 08:33:54;;;;;;;1.38;0.93;;;31.30;99.90;;;;;;4186899;28;20045;-64
2021/09/23 08:35:59;;;;;;;1.95;1.00;;;31.30;99.90;;;;;;4188677;28;20048;-64
2021/09/23 08:38:04;;;;;;;1.10;0.90;;;31.30;99.90;;;;;;4176345;28;20366;-64
2021/09/23 08:40:11;;;;;;;1.35;1.00;;;31.30;99.90;;;;;;4171510;28;20474;-63
2021/09/23 08:42:16;;;;;;;2.55;1.13;;;31.30;99.90;;;;;;4185500;28;20080;-64
2021/09/23 08:44:21;;;;;;;1.52;0.90;;;31.30;99.90;;;;;;4187738;28;20044;-64
2021/09/23 08:46:31;;;;;;;3.00;1.10;;;31.30;99.90;;;;;;4185196;28;20123;-64
2021/09/23 08:48:36;;;;;;;2.00;1.20;;;31.40;99.90;;;;;;4197019;28;20043;-64
2021/09/23 08:50:40;;;;;;;1.33;0.82;;;31.40;99.90;;;;;;4186401;28;20041;-65
2021/09/23 08:53:06;;;;;;;2.83;1.20;;;31.40;99.90;;;;;;4202779;28;20040;-64
2021/09/23 08:55:29;;;;;;;1.27;0.95;;;31.50;99.90;;;;;;4202519;28;20311;-64
2021/09/23 08:57:37;;;;;;;6.53;4.82;;;31.50;99.90;;;;;;4196288;28;20052;-65
2021/09/23 08:59:42;;;;;;;9.48;7.22;;;31.50;99.90;;;;;;4187216;28;20052;-64
2021/09/23 09:01:48;;;;;;;6.13;4.88;;;31.50;99.90;;;;;;4184913;28;20048;-64
2021/09/23 09:04:24;;;;;;;6.93;5.20;;;31.50;99.90;;;;;;4200202;28;20422;-64
2021/09/23 09:07:01;;;;;;;6.55;4.63;;;31.40;99.90;;;;;;4170423;28;20085;-64
2021/09/23 09:09:25;;;;;;;3.70;2.65;;;31.40;99.90;;;;;;4183872;28;20051;-64
2021/09/23 09:11:46;;;;;;;3.97;2.30;;;31.30;99.90;;;;;;4172808;28;20098;-66
2021/09/23 09:13:52;;;;;;;2.90;1.50;;;31.30;99.90;;;;;;4186752;28;20529;-65
2021/09/23 09:16:01;;;;;;;3.35;1.92;;;31.30;99.90;;;;;;4170702;28;20052;-66
2021/09/23 09:18:13;;;;;;;3.25;1.50;;;31.20;99.90;;;;;;4158355;28;20052;-67
2021/09/23 09:20:19;;;;;;;;;;;31.10;99.90;;;;;;4186161;28;20041;-67
2021/09/23 09:22:25;;;;;;;3.33;1.27;;;31.10;99.90;;;;;;4178913;28;19929;-66
2021/09/23 09:24:35;;;;;;;3.08;1.30;;;31.10;99.90;;;;;;4184678;28;20101;-66
2021/09/23 09:26:41;;;;;;;1.88;1.30;;;31.00;99.90;;;;;;4149591;28;20782;-67
2021/09/23 09:28:56;;;;;;;2.33;1.40;;;31.00;99.90;;;;;;4162511;28;20060;-67
2021/09/23 09:31:02;;;;;;;4.65;3.10;;;30.90;99.90;;;;;;4169218;28;20488;-67
2021/09/23 09:33:08;;;;;;;8.15;2.80;;;30.80;99.90;;;;;;4168231;28;20612;-67
2021/09/23 09:35:26;;;;;;;8.88;4.05;;;30.70;99.90;;;;;;4168806;28;20203;-67
2021/09/23 09:37:32;;;;;;;4.45;2.10;;;30.60;99.90;;;;;;4179175;28;20499;-67
2021/09/23 09:39:37;;;;;;;3.40;1.52;;;30.40;99.90;;;;;;4166794;28;20049;-67
2021/09/23 09:41:44;;;;;;;6.78;1.73;;;30.20;99.90;;;;;;4169751;28;20041;-68
2021/09/23 09:43:51;;;;;;;2.63;1.30;;;30.10;99.90;;;;;;4167350;28;20589;-69
2021/09/23 09:45:55;;;;;;;8.30;1.60;;;30.00;99.90;;;;;;4185246;28;20078;-69
2021/09/23 09:48:00;;;;;;;4.68;1.27;;;29.80;99.90;;;;;;4177254;28;20072;-68
2021/09/23 09:50:15;;;;;;;2.42;1.10;;;29.80;99.90;;;;;;4182623;28;20068;-68
2021/09/23 09:52:29;;;;;;;4.10;1.30;;;29.60;99.90;;;;;;4186310;28;20159;-68
2021/09/23 09:54:35;;;;;;;5.00;1.35;;;29.60;99.90;;;;;;4187195;28;20091;-67
2021/09/23 09:56:41;;;;;;;5.90;1.33;;;29.60;99.90;;;;;;4186127;28;20097;-67
2021/09/23 09:59:05;;;;;;;4.07;1.30;;;29.50;99.90;;;;;;4167571;28;20091;-67
2021/09/23 10:01:10;;;;;;;5.47;1.40;;;29.50;99.90;;;;;;4186138;28;20411;-67
2021/09/23 10:03:15;;;;;;;6.82;1.33;;;29.50;99.90;;;;;;4189094;28;20040;-67
2021/09/23 10:05:21;;;;;;;3.30;1.17;;;29.50;99.90;;;;;;4174277;28;20163;-67
2021/09/23 10:07:27;;;;;;;4.45;1.35;;;29.40;99.90;;;;;;4183842;28;20052;-66
2021/09/23 10:09:35;;;;;;;2.30;1.00;;;29.30;99.90;;;;;;4186939;28;20044;-67
2021/09/23 10:11:47;;;;;;;4.93;0.93;;;29.20;99.90;;;;;;4159116;28;20048;-68
2021/09/23 10:13:54;;;;;;;6.53;1.30;;;28.80;99.90;;;;;;4206258;28;20415;-67
2021/09/23 10:16:00;;;;;;;2.92;1.13;;;28.70;99.90;;;;;;4174170;28;20041;-67
2021/09/23 10:18:05;;;;;;;3.13;1.13;;;28.80;99.90;;;;;;4163051;28;20670;-67
2021/09/23 10:20:20;;;;;;;3.50;1.73;;;28.80;99.90;;;;;;4172415;28;20390;-67
2021/09/23 10:22:25;;;;;;;7.78;2.50;;;28.80;99.90;;;;;;4190783;28;20127;-67
2021/09/23 10:24:30;;;;;;;2.33;1.38;;;28.50;99.90;;;;;;4172848;28;20037;-68
2021/09/23 10:26:38;;;;;;;3.63;1.40;;;28.40;99.90;;;;;;4185736;28;20041;-67
2021/09/23 10:28:45;;;;;;;4.57;3.20;;;28.60;99.90;;;;;;4152725;28;20041;-68
2021/09/23 10:30:51;;;;;;;3.90;3.08;;;28.70;99.90;;;;;;4189669;28;20076;-68
2021/09/23 10:32:57;;;;;;;4.40;2.47;;;28.90;99.90;;;;;;4155545;28;20096;-68
2021/09/23 10:35:02;;;;;;;2.78;1.60;;;28.90;99.90;;;;;;4173456;28;20052;-68
2021/09/23 10:37:07;;;;;;;7.00;2.05;;;28.90;99.90;;;;;;4153392;28;20154;-68
2021/09/23 10:39:12;;;;;;;7.38;4.65;;;28.90;99.90;;;;;;4185465;28;20053;-68
2021/09/23 10:41:16;;;;;;;8.68;5.13;;;28.90;99.90;;;;;;4172001;28;20055;-68
2021/09/23 10:43:21;;;;;;;7.50;5.18;;;28.90;99.90;;;;;;4154596;28;20478;-66
2021/09/23 10:45:30;;;;;;;6.13;4.65;;;28.90;99.90;;;;;;4169942;28;20511;-67
2021/09/23 10:47:36;;;;;;;7.85;4.47;;;29.00;99.90;;;;;;4182810;28;20053;-67
2021/09/23 10:49:42;;;;;;;8.27;4.70;;;29.00;99.90;;;;;;4170878;28;20311;-68
2021/09/23 10:51:47;;;;;;;8.88;3.72;;;28.90;99.90;;;;;;4206001;28;20048;-67
2021/09/23 10:53:56;;;;;;;6.30;3.05;;;28.90;99.90;;;;;;4153054;28;20079;-67
2021/09/23 10:56:06;;;;;;;6.55;3.42;;;28.90;99.90;;;;;;4171497;28;20561;-66
2021/09/23 10:58:19;;;;;;;6.20;3.60;;;28.90;99.90;;;;;;4178104;28;20098;-69
2021/09/23 11:00:26;;;;;;;7.95;4.50;;;28.90;99.90;;;;;;4148631;28;20057;-67
2021/09/23 11:02:32;;;;;;;8.38;5.60;;;28.90;99.90;;;;;;4171099;28;20087;-67